• Join FlightAware (Why Join?)
  • Login
  • US Flag 
03:56AM EDT


 

Airport Tracker/Info


-or-


 

Live Flight TrackerFlight Track Log ✈ DAL110 ✈ 24-Apr-2013 ✈ SAEZ / EZE - KATL

Flight Track Log - Related Links

Times and Time Zones

All times are in EDT time to prevent confusion due to time zone crossing. See the DAL110 flight status page for this flight to view local times or setup timezone preferences in your user account.

Time Position Orientation Groundspeed Altitude Reporting Facility
EDT Latitude Longitude Course Direction KTS MPH feet Rate Location/Type
07:37PM -34.7124 -58.5807 339° North  Level FlightAware Approximate
07:38PM -34.6013 -58.6324 339° North  Level FlightAware Approximate
07:39PM -34.4902 -58.6840 339° North  Level FlightAware Approximate
07:40PM -34.3791 -58.7354 339° North  Level FlightAware Approximate
07:41PM -34.2673 -58.7870 339° North  Level FlightAware Approximate
07:42PM -34.1554 -58.8385 339° North  Level FlightAware Approximate
07:43PM -34.0435 -58.8899 339° North  Level FlightAware Approximate
07:44PM -33.9315 -58.9411 339° North  Level FlightAware Approximate
07:45PM -33.8196 -58.9922 339° North  Level FlightAware Approximate
07:46PM -33.7076 -59.0432 339° North  Level FlightAware Approximate
07:47PM -33.5956 -59.0940 339° North  Level FlightAware Approximate
07:48PM -33.4836 -59.1447 339° North  Level FlightAware Approximate
07:49PM -33.3716 -59.1953 339° North  Level FlightAware Approximate
07:50PM -33.2595 -59.2457 339° North  Level FlightAware Approximate
07:51PM -33.1451 -59.2978 339° North  Level FlightAware Approximate
07:52PM -33.0332 -59.3486 339° North  Level FlightAware Approximate
07:53PM -32.9213 -59.3993 339° North  Level FlightAware Approximate
07:54PM -32.8093 -59.4498 339° North  Level FlightAware Approximate
07:55PM -32.6974 -59.5003 339° North  Level FlightAware Approximate
07:56PM -32.5854 -59.5505 339° North  Level FlightAware Approximate
07:57PM -32.4734 -59.6007 339° North  Level FlightAware Approximate
07:58PM -32.3614 -59.6508 339° North  Level FlightAware Approximate
07:59PM -32.2494 -59.7007 339° North  Level FlightAware Approximate
08:00PM -32.1373 -59.7505 339° North  Level FlightAware Approximate
08:01PM -32.0253 -59.8002 339° North  Level FlightAware Approximate
08:02PM -31.9132 -59.8498 339° North  Level FlightAware Approximate
08:03PM -31.8011 -59.8992 339° North  Level FlightAware Approximate
08:04PM -31.6889 -59.9485 339° North  Level FlightAware Approximate
08:05PM -31.5768 -59.9977 340° North  Level FlightAware Approximate
08:06PM -31.4646 -60.0468 340° North  Level FlightAware Approximate
08:07PM -31.3524 -60.0958 340° North  Level FlightAware Approximate
08:08PM -31.2393 -60.1450 340° North  Level FlightAware Approximate
08:09PM -31.1262 -60.1941 340° North  Level FlightAware Approximate
08:10PM -31.0130 -60.2432 340° North  Level FlightAware Approximate
08:11PM -30.8998 -60.2921 340° North  Level FlightAware Approximate
08:12PM -30.7866 -60.3408 340° North  Level FlightAware Approximate
08:13PM -30.6734 -60.3895 340° North  Level FlightAware Approximate
08:14PM -30.5602 -60.4381 340° North  Level FlightAware Approximate
08:15PM -30.4469 -60.4865 340° North  Level FlightAware Approximate
08:16PM -30.3336 -60.5348 340° North  Level FlightAware Approximate
08:17PM -30.2203 -60.5830 340° North  Level FlightAware Approximate
08:18PM -30.1070 -60.6312 340° North  Level FlightAware Approximate
08:19PM -29.9937 -60.6792 340° North  Level FlightAware Approximate
08:20PM -29.8804 -60.7271 340° North  Level FlightAware Approximate
08:21PM -29.7670 -60.7748 340° North  Level FlightAware Approximate
08:22PM -29.6536 -60.8225 340° North  Level FlightAware Approximate
08:23PM -29.5402 -60.8701 340° North  Level FlightAware Approximate
08:24PM -29.4268 -60.9175 340° North  Level FlightAware Approximate
08:25PM -29.3134 -60.9649 340° North  Level FlightAware Approximate
08:26PM -29.1999 -61.0121 340° North  Level FlightAware Approximate
08:27PM -29.0865 -61.0593 340° North  Level FlightAware Approximate
08:28PM -28.9730 -61.1063 340° North  Level FlightAware Approximate
08:29PM -28.8595 -61.1532 340° North  Level FlightAware Approximate
08:30PM -28.7460 -61.2001 340° North  Level FlightAware Approximate
08:31PM -28.6324 -61.2468 340° North  Level FlightAware Approximate
08:32PM -28.5189 -61.2934 340° North  Level FlightAware Approximate
08:33PM -28.4053 -61.3400 340° North  Level FlightAware Approximate
08:34PM -28.2918 -61.3864 340° North  Level FlightAware Approximate
08:35PM -28.1782 -61.4327 340° North  Level FlightAware Approximate
08:36PM -28.0646 -61.4789 340° North  Level FlightAware Approximate
08:37PM -27.9509 -61.5251 340° North  Level FlightAware Approximate
08:38PM -27.8373 -61.5711 340° North  Level FlightAware Approximate
08:39PM -27.7236 -61.6171 340° North  Level FlightAware Approximate
08:40PM -27.6100 -61.6629 340° North  Level FlightAware Approximate
08:41PM -27.4963 -61.7086 340° North  Level FlightAware Approximate
08:42PM -27.3826 -61.7543 340° North  Level FlightAware Approximate
08:43PM -27.2689 -61.7999 340° North  Level FlightAware Approximate
08:44PM -27.1552 -61.8453 340° North  Level FlightAware Approximate
08:45PM -27.0414 -61.8907 340° North  Level FlightAware Approximate
08:46PM -26.9277 -61.9360 340° North  Level FlightAware Approximate
08:47PM -26.8139 -61.9812 340° North  Level FlightAware Approximate
08:48PM -26.7001 -62.0263 340° North  Level FlightAware Approximate
08:49PM -26.5863 -62.0713 341° North  Level FlightAware Approximate
08:50PM -26.4725 -62.1162 341° North  Level FlightAware Approximate
08:51PM -26.3587 -62.1610 341° North  Level FlightAware Approximate
08:52PM -26.2448 -62.2058 341° North  Level FlightAware Approximate
08:53PM -26.1310 -62.2505 341° North  Level FlightAware Approximate
08:54PM -26.0171 -62.2950 341° North  Level FlightAware Approximate
08:55PM -25.9032 -62.3395 341° North  Level FlightAware Approximate
08:56PM -25.7893 -62.3839 341° North  Level FlightAware Approximate
08:57PM -25.6754 -62.4282 341° North  Level FlightAware Approximate
08:58PM -25.5615 -62.4724 341° North  Level FlightAware Approximate
08:59PM -25.4475 -62.5166 341° North  Level FlightAware Approximate
09:00PM -25.3336 -62.5606 341° North  Level FlightAware Approximate
09:01PM -25.2196 -62.6046 341° North  Level FlightAware Approximate
09:02PM -25.1056 -62.6485 341° North  Level FlightAware Approximate
09:03PM -24.9917 -62.6923 341° North  Level FlightAware Approximate
09:04PM -24.8777 -62.7361 341° North  Level FlightAware Approximate
09:05PM -24.7637 -62.7797 341° North  Level FlightAware Approximate
09:06PM -24.6496 -62.8233 341° North  Level FlightAware Approximate
09:07PM -24.5356 -62.8668 341° North  Level FlightAware Approximate
09:08PM -24.4215 -62.9102 341° North  Level FlightAware Approximate
09:09PM -24.3075 -62.9535 341° North  Level FlightAware Approximate
09:10PM -24.1934 -62.9968 341° North  Level FlightAware Approximate
09:11PM -24.0793 -63.0400 341° North  Level FlightAware Approximate
09:12PM -23.9652 -63.0831 341° North  Level FlightAware Approximate
09:13PM -23.8511 -63.1261 341° North  Level FlightAware Approximate
09:14PM -23.7370 -63.1690 341° North  Level FlightAware Approximate
09:15PM -23.6228 -63.2119 341° North  Level FlightAware Approximate
09:16PM -23.5087 -63.2547 341° North  Level FlightAware Approximate
09:17PM -23.3945 -63.2975 341° North  Level FlightAware Approximate
09:18PM -23.2803 -63.3401 341° North  Level FlightAware Approximate
09:19PM -23.1662 -63.3827 341° North  Level FlightAware Approximate
09:20PM -23.0520 -63.4252 341° North  Level FlightAware Approximate
09:21PM -22.9378 -63.4676 341° North  Level FlightAware Approximate
09:22PM -22.8235 -63.5100 341° North  Level FlightAware Approximate
09:23PM -22.7093 -63.5523 341° North  Level FlightAware Approximate
09:24PM -22.5951 -63.5945 341° North  Level FlightAware Approximate
09:25PM -22.4808 -63.6367 341° North  Level FlightAware Approximate
09:26PM -22.3666 -63.6787 341° North  Level FlightAware Approximate
09:27PM -22.2523 -63.7208 341° North  Level FlightAware Approximate
09:28PM -22.1380 -63.7627 341° North  Level FlightAware Approximate
09:29PM -22.0237 -63.8046 341° North  Level FlightAware Approximate
09:30PM -21.9094 -63.8464 341° North  Level FlightAware Approximate
09:31PM -21.7951 -63.8881 341° North  Level FlightAware Approximate
09:32PM -21.6808 -63.9298 341° North  Level FlightAware Approximate
09:33PM -21.5664 -63.9714 341° North  Level FlightAware Approximate
09:34PM -21.4521 -64.0130 341° North  Level FlightAware Approximate
09:35PM -21.3377 -64.0545 341° North  Level FlightAware Approximate
09:36PM -21.2234 -64.0959 341° North  Level FlightAware Approximate
09:37PM -21.1090 -64.1372 341° North  Level FlightAware Approximate
09:38PM -20.9946 -64.1785 341° North  Level FlightAware Approximate
09:39PM -20.8802 -64.2198 341° North  Level FlightAware Approximate
09:40PM -20.7658 -64.2609 341° North  Level FlightAware Approximate
09:41PM -20.6514 -64.3020 341° North  Level FlightAware Approximate
09:42PM -20.5369 -64.3431 341° North  Level FlightAware Approximate
09:43PM -20.4225 -64.3840 341° North  Level FlightAware Approximate
09:44PM -20.3080 -64.4250 341° North  Level FlightAware Approximate
09:45PM -20.1936 -64.4658 341° North  Level FlightAware Approximate
09:46PM -20.0791 -64.5066 341° North  Level FlightAware Approximate
09:47PM -19.9646 -64.5474 342° North  Level FlightAware Approximate
09:48PM -19.8502 -64.5880 342° North  Level FlightAware Approximate
09:49PM -19.7357 -64.6287 342° North  Level FlightAware Approximate
09:50PM -19.6212 -64.6692 342° North  Level FlightAware Approximate
09:51PM -19.5067 -64.7097 342° North  Level FlightAware Approximate
09:52PM -19.3922 -64.7502 342° North  Level FlightAware Approximate
09:53PM -19.2776 -64.7906 342° North  Level FlightAware Approximate
09:54PM -19.1631 -64.8309 342° North  Level FlightAware Approximate
09:55PM -19.0485 -64.8712 342° North  Level FlightAware Approximate
09:56PM -18.9340 -64.9114 342° North  Level FlightAware Approximate
09:57PM -18.8194 -64.9515 342° North  Level FlightAware Approximate
09:58PM -18.7048 -64.9917 342° North  Level FlightAware Approximate
09:59PM -18.5903 -65.0317 342° North  Level FlightAware Approximate
10:00PM -18.4757 -65.0717 342° North  Level FlightAware Approximate
10:01PM -18.3611 -65.1117 342° North  Level FlightAware Approximate
10:02PM -18.2465 -65.1516 342° North  Level FlightAware Approximate
10:03PM -18.1319 -65.1914 342° North  Level FlightAware Approximate
10:04PM -18.0172 -65.2312 342° North  Level FlightAware Approximate
10:05PM -17.9026 -65.2709 342° North  Level FlightAware Approximate
10:06PM -17.7880 -65.3106 342° North  Level FlightAware Approximate
10:07PM -17.6733 -65.3503 342° North  Level FlightAware Approximate
10:08PM -17.5587 -65.3898 342° North  Level FlightAware Approximate
10:09PM -17.4440 -65.4294 342° North  Level FlightAware Approximate
10:10PM -17.3293 -65.4689 342° North  Level FlightAware Approximate
10:11PM -17.2147 -65.5083 342° North  Level FlightAware Approximate
10:12PM -17.1000 -65.5477 342° North  Level FlightAware Approximate
10:13PM -16.9853 -65.5871 342° North  Level FlightAware Approximate
10:14PM -16.8706 -65.6263 342° North  Level FlightAware Approximate
10:15PM -16.7559 -65.6656 342° North  Level FlightAware Approximate
10:16PM -16.6411 -65.7048 342° North  Level FlightAware Approximate
10:17PM -16.5264 -65.7439 342° North  Level FlightAware Approximate
10:18PM -16.4117 -65.7830 342° North  Level FlightAware Approximate
10:19PM -16.2970 -65.8221 342° North  Level FlightAware Approximate
10:20PM -16.1822 -65.8611 342° North  Level FlightAware Approximate
10:21PM -16.0675 -65.9001 342° North  Level FlightAware Approximate
10:22PM -15.9527 -65.9390 342° North  Level FlightAware Approximate
10:23PM -15.8379 -65.9779 342° North  Level FlightAware Approximate
10:24PM -15.7232 -66.0167 342° North  Level FlightAware Approximate
10:25PM -15.6084 -66.0555 342° North  Level FlightAware Approximate
10:26PM -15.4936 -66.0942 342° North  Level FlightAware Approximate
10:27PM -15.3788 -66.1329 342° North  Level FlightAware Approximate
10:28PM -15.2640 -66.1716 342° North  Level FlightAware Approximate
10:29PM -15.1492 -66.2102 342° North  Level FlightAware Approximate
10:30PM -15.0344 -66.2488 342° North  Level FlightAware Approximate
10:31PM -14.9196 -66.2873 342° North  Level FlightAware Approximate
10:32PM -14.8047 -66.3258 342° North  Level FlightAware Approximate
10:33PM -14.6899 -66.3643 342° North  Level FlightAware Approximate
10:34PM -14.5751 -66.4027 342° North  Level FlightAware Approximate
10:35PM -14.4602 -66.4410 342° North  Level FlightAware Approximate
10:36PM -14.3454 -66.4794 342° North  Level FlightAware Approximate
10:37PM -14.2305 -66.5177 342° North  Level FlightAware Approximate
10:38PM -14.1157 -66.5559 342° North  Level FlightAware Approximate
10:39PM -14.0008 -66.5941 342° North  Level FlightAware Approximate
10:40PM -13.8859 -66.6323 342° North  Level FlightAware Approximate
10:41PM -13.7710 -66.6705 342° North  Level FlightAware Approximate
10:42PM -13.6561 -66.7086 342° North  Level FlightAware Approximate
10:43PM -13.5413 -66.7466 342° North  Level FlightAware Approximate
10:44PM -13.4264 -66.7847 342° North  Level FlightAware Approximate
10:45PM -13.3115 -66.8226 342° North  Level FlightAware Approximate
10:46PM -13.1966 -66.8606 342° North  Level FlightAware Approximate
10:47PM -13.0816 -66.8985 342° North  Level FlightAware Approximate
10:48PM -12.9667 -66.9364 342° North  Level FlightAware Approximate
10:49PM -12.8518 -66.9743 342° North  Level FlightAware Approximate
10:50PM -12.7368 -67.0121 342° North  Level FlightAware Approximate
10:51PM -12.6219 -67.0499 342° North  Level FlightAware Approximate
10:52PM -12.5070 -67.0876 342° North  Level FlightAware Approximate
10:53PM -12.3920 -67.1253 342° North  Level FlightAware Approximate
10:54PM -12.2771 -67.1630 342° North  Level FlightAware Approximate
10:55PM -12.1621 -67.2006 342° North  Level FlightAware Approximate
10:56PM -12.0471 -67.2383 342° North  Level FlightAware Approximate
10:57PM -11.9322 -67.2758 342° North  Level FlightAware Approximate
10:58PM -11.8172 -67.3134 342° North  Level FlightAware Approximate
10:59PM -11.7022 -67.3509 342° North  Level FlightAware Approximate
11:00PM -11.5872 -67.3884 342° North  Level FlightAware Approximate
11:01PM -11.4723 -67.4258 342° North  Level FlightAware Approximate
11:02PM -11.3573 -67.4633 342° North  Level FlightAware Approximate
11:03PM -11.2423 -67.5007 342° North  Level FlightAware Approximate
11:04PM -11.1273 -67.5380 342° North  Level FlightAware Approximate
11:05PM -11.0123 -67.5754 342° North  Level FlightAware Approximate
11:06PM -10.8973 -67.6127 342° North  Level FlightAware Approximate
11:07PM -10.7822 -67.6500 342° North  Level FlightAware Approximate
11:08PM -10.6672 -67.6872 342° North  Level FlightAware Approximate
11:09PM -10.5522 -67.7244 342° North  Level FlightAware Approximate
11:10PM -10.4372 -67.7616 342° North  Level FlightAware Approximate
11:11PM -10.3221 -67.7988 342° North  Level FlightAware Approximate
11:12PM -10.2071 -67.8360 342° North  Level FlightAware Approximate
11:13PM -10.0920 -67.8731 342° North  Level FlightAware Approximate
11:14PM -9.9770 -67.9101 342° North  Level FlightAware Approximate
11:15PM -9.8619 -67.9472 342° North  Level FlightAware Approximate
11:16PM -9.7469 -67.9842 342° North  Level FlightAware Approximate
11:17PM -9.6318 -68.0212 342° North  Level FlightAware Approximate
11:18PM -9.5168 -68.0582 342° North  Level FlightAware Approximate
11:19PM -9.4017 -68.0952 342° North  Level FlightAware Approximate
11:20PM -9.2866 -68.1321 342° North  Level FlightAware Approximate
11:21PM -9.1716 -68.1690 342° North  Level FlightAware Approximate
11:22PM -9.0565 -68.2059 342° North  Level FlightAware Approximate
11:23PM -8.9414 -68.2428 342° North  Level FlightAware Approximate
11:24PM -8.8263 -68.2796 342° North  Level FlightAware Approximate
11:25PM -8.7112 -68.3164 342° North  Level FlightAware Approximate
11:26PM -8.5962 -68.3532 342° North  Level FlightAware Approximate
11:27PM -8.4811 -68.3900 342° North  Level FlightAware Approximate
11:28PM -8.3660 -68.4268 342° North  Level FlightAware Approximate
11:29PM -8.2509 -68.4635 342° North  Level FlightAware Approximate
11:30PM -8.1358 -68.5002 342° North  Level FlightAware Approximate
11:31PM -8.0206 -68.5369 342° North  Level FlightAware Approximate
11:32PM -7.9055 -68.5735 342° North  Level FlightAware Approximate
11:33PM -7.7904 -68.6102 342° North  Level FlightAware Approximate
11:34PM -7.6753 -68.6468 343° North  Level FlightAware Approximate
11:35PM -7.5602 -68.6834 343° North  Level FlightAware Approximate
11:36PM -7.4451 -68.7200 343° North  Level FlightAware Approximate
11:37PM -7.3299 -68.7566 343° North  Level FlightAware Approximate
11:38PM -7.2148 -68.7931 343° North  Level FlightAware Approximate
11:39PM -7.0995 -68.8297 343° North  Level FlightAware Approximate
11:40PM -6.9842 -68.8663 343° North  Level FlightAware Approximate
11:41PM -6.8688 -68.9028 343° North  Level FlightAware Approximate
11:42PM -6.7535 -68.9393 343° North  Level FlightAware Approximate
11:43PM -6.6382 -68.9759 343° North  Level FlightAware Approximate
11:44PM -6.5228 -69.0124 343° North  Level FlightAware Approximate
11:45PM -6.4075 -69.0488 343° North  Level FlightAware Approximate
11:46PM -6.2922 -69.0853 343° North  Level FlightAware Approximate
11:47PM -6.1768 -69.1218 343° North  Level FlightAware Approximate
11:48PM -6.0615 -69.1582 343° North  Level FlightAware Approximate
11:49PM -5.9461 -69.1946 343° North  Level FlightAware Approximate
11:50PM -5.8308 -69.2310 343° North  Level FlightAware Approximate
11:51PM -5.7154 -69.2674 343° North  Level FlightAware Approximate
11:52PM -5.6000 -69.3038 343° North  Level FlightAware Approximate
11:53PM -5.4847 -69.3401 343° North  Level FlightAware Approximate
11:54PM -5.3693 -69.3765 343° North  Level FlightAware Approximate
11:55PM -5.2540 -69.4128 343° North  Level FlightAware Approximate
11:56PM -5.1386 -69.4491 343° North  Level FlightAware Approximate
11:57PM -5.0232 -69.4854 343° North  Level FlightAware Approximate
11:58PM -4.9079 -69.5217 343° North  Level FlightAware Approximate
11:59PM -4.7925 -69.5580 343° North  Level FlightAware Approximate
12:00AM -4.6771 -69.5943 343° North  Level FlightAware Approximate
12:01AM -4.5618 -69.6305 343° North  Level FlightAware Approximate
12:02AM -4.4464 -69.6668 343° North  Level FlightAware Approximate
12:03AM -4.3310 -69.7030 343° North  Level FlightAware Approximate
12:04AM -4.2156 -69.7392 343° North  Level FlightAware Approximate
12:05AM -4.1002 -69.7754 343° North  Level FlightAware Approximate
12:06AM -3.9849 -69.8116 343° North  Level FlightAware Approximate
12:07AM -3.8695 -69.8478 343° North  Level FlightAware Approximate
12:08AM -3.7541 -69.8840 343° North  Level FlightAware Approximate
12:09AM -3.6387 -69.9202 343° North  Level FlightAware Approximate
12:10AM -3.5233 -69.9563 343° North  Level FlightAware Approximate
12:11AM -3.4079 -69.9925 343° North  Level FlightAware Approximate
12:12AM -3.2925 -70.0286 343° North  Level FlightAware Approximate
12:13AM -3.1771 -70.0648 343° North  Level FlightAware Approximate
12:14AM -3.0617 -70.1009 343° North  Level FlightAware Approximate
12:15AM -2.9464 -70.1370 343° North  Level FlightAware Approximate
12:16AM -2.8310 -70.1731 343° North  Level FlightAware Approximate
12:17AM -2.7155 -70.2092 343° North  Level FlightAware Approximate
12:18AM -2.6002 -70.2453 343° North  Level FlightAware Approximate
12:19AM -2.4848 -70.2814 343° North  Level FlightAware Approximate
12:20AM -2.3693 -70.3175 343° North  Level FlightAware Approximate
12:21AM -2.2540 -70.3536 343° North  Level FlightAware Approximate
12:22AM -2.1386 -70.3896 343° North  Level FlightAware Approximate
12:23AM -2.0231 -70.4257 343° North  Level FlightAware Approximate
12:24AM -1.9078 -70.4618 343° North  Level FlightAware Approximate
12:25AM -1.7923 -70.4978 343° North  Level FlightAware Approximate
12:26AM -1.6769 -70.5339 343° North  Level FlightAware Approximate
12:27AM -1.5615 -70.5699 343° North  Level FlightAware Approximate
12:28AM -1.4461 -70.6060 343° North  Level FlightAware Approximate
12:29AM -1.3307 -70.6420 343° North  Level FlightAware Approximate
12:30AM -1.2153 -70.6780 343° North  Level FlightAware Approximate
12:31AM -1.0999 -70.7141 343° North  Level FlightAware Approximate
12:32AM -0.9845 -70.7501 343° North  Level FlightAware Approximate
12:33AM -0.8691 -70.7861 343° North  Level FlightAware Approximate
12:34AM -0.7537 -70.8222 343° North  Level FlightAware Approximate
12:35AM -0.6382 -70.8582 343° North  Level FlightAware Approximate
12:36AM -0.5228 -70.8942 343° North  Level FlightAware Approximate
12:37AM -0.4074 -70.9302 343° North  Level FlightAware Approximate
12:38AM -0.2920 -70.9663 343° North  Level FlightAware Approximate
12:39AM -0.1766 -71.0023 343° North  Level FlightAware Approximate
12:40AM -0.0612 -71.0383 343° North  Level FlightAware Approximate
12:41AM 0.0542 -71.0743 343° North  Level FlightAware Approximate
12:42AM 0.1696 -71.1103 343° North  Level FlightAware Approximate
12:43AM 0.2850 -71.1464 343° North  Level FlightAware Approximate
12:44AM 0.4004 -71.1824 343° North  Level FlightAware Approximate
12:45AM 0.5159 -71.2184 343° North  Level FlightAware Approximate
12:46AM 0.6313 -71.2544 343° North  Level FlightAware Approximate
12:47AM 0.7467 -71.2905 343° North  Level FlightAware Approximate
12:48AM 0.8621 -71.3265 343° North  Level FlightAware Approximate
12:49AM 0.9775 -71.3625 343° North  Level FlightAware Approximate
12:50AM 1.0929 -71.3985 343° North  Level FlightAware Approximate
12:51AM 1.2083 -71.4346 343° North  Level FlightAware Approximate
12:52AM 1.3237 -71.4706 343° North  Level FlightAware Approximate
12:53AM 1.4391 -71.5067 343° North  Level FlightAware Approximate
12:54AM 1.5546 -71.5427 343° North  Level FlightAware Approximate
12:55AM 1.6700 -71.5787 343° North  Level FlightAware Approximate
12:56AM 1.7854 -71.6148 343° North  Level FlightAware Approximate
12:57AM 1.9008 -71.6508 343° North  Level FlightAware Approximate
12:58AM 2.0162 -71.6869 343° North  Level FlightAware Approximate
12:59AM 2.1316 -71.7230 343° North  Level FlightAware Approximate
01:00AM 2.2470 -71.7590 343° North  Level FlightAware Approximate
01:01AM 2.3624 -71.7951 343° North  Level FlightAware Approximate
01:02AM 2.4778 -71.8312 343° North  Level FlightAware Approximate
01:03AM 2.5932 -71.8673 343° North  Level FlightAware Approximate
01:04AM 2.7086 -71.9034 343° North  Level FlightAware Approximate
01:05AM 2.8240 -71.9395 343° North  Level FlightAware Approximate
01:06AM 2.9394 -71.9756 343° North  Level FlightAware Approximate
01:07AM 3.0548 -72.0117 343° North  Level FlightAware Approximate
01:08AM 3.1702 -72.0479 343° North  Level FlightAware Approximate
01:09AM 3.2856 -72.0840 343° North  Level FlightAware Approximate
01:10AM 3.4009 -72.1201 343° North  Level FlightAware Approximate
01:11AM 3.5163 -72.1563 343° North  Level FlightAware Approximate
01:12AM 3.6317 -72.1924 343° North  Level FlightAware Approximate
01:13AM 3.7471 -72.2286 343° North  Level FlightAware Approximate
01:14AM 3.8625 -72.2648 343° North  Level FlightAware Approximate
01:15AM 3.9779 -72.3010 343° North  Level FlightAware Approximate
01:16AM 4.0933 -72.3372 343° North  Level FlightAware Approximate
01:17AM 4.2087 -72.3734 343° North  Level FlightAware Approximate
01:18AM 4.3240 -72.4096 343° North  Level FlightAware Approximate
01:19AM 4.4394 -72.4458 343° North  Level FlightAware Approximate
01:20AM 4.5548 -72.4821 343° North  Level FlightAware Approximate
01:21AM 4.6702 -72.5183 343° North  Level FlightAware Approximate
01:22AM 4.7855 -72.5546 343° North  Level FlightAware Approximate
01:23AM 4.9009 -72.5909 343° North  Level FlightAware Approximate
01:24AM 5.0163 -72.6272 343° North  Level FlightAware Approximate
01:25AM 5.1316 -72.6635 343° North  Level FlightAware Approximate
01:26AM 5.2470 -72.6998 343° North  Level FlightAware Approximate
01:27AM 5.3624 -72.7361 343° North  Level FlightAware Approximate
01:28AM 5.4777 -72.7725 343° North  Level FlightAware Approximate
01:29AM 5.5931 -72.8088 343° North  Level FlightAware Approximate
01:30AM 5.7084 -72.8452 343° North  Level FlightAware Approximate
01:31AM 5.8238 -72.8816 343° North  Level FlightAware Approximate
01:32AM 5.9391 -72.9180 343° North  Level FlightAware Approximate
01:33AM 6.0545 -72.9544 343° North  Level FlightAware Approximate
01:34AM 6.1698 -72.9908 343° North  Level FlightAware Approximate
01:35AM 6.2852 -73.0273 343° North  Level FlightAware Approximate
01:36AM 6.4005 -73.0638 343° North  Level FlightAware Approximate
01:37AM 6.5159 -73.1002 343° North  Level FlightAware Approximate
01:38AM 6.6312 -73.1367 343° North  Level FlightAware Approximate
01:39AM 6.7465 -73.1732 343° North  Level FlightAware Approximate
01:40AM 6.8619 -73.2098 343° North  Level FlightAware Approximate
01:41AM 6.9772 -73.2463 343° North  Level FlightAware Approximate
01:42AM 7.0925 -73.2829 343° North  Level FlightAware Approximate
01:43AM 7.2078 -73.3195 343° North  Level FlightAware Approximate
01:44AM 7.3232 -73.3561 343° North  Level FlightAware Approximate
01:45AM 7.4385 -73.3927 343° North  Level FlightAware Approximate
01:46AM 7.5538 -73.4294 343° North  Level FlightAware Approximate
01:47AM 7.6691 -73.4660 343° North  Level FlightAware Approximate
01:48AM 7.7844 -73.5027 343° North  Level FlightAware Approximate
01:49AM 7.8997 -73.5394 342° North  Level FlightAware Approximate
01:50AM 8.0150 -73.5761 342° North  Level FlightAware Approximate
01:51AM 8.1303 -73.6129 342° North  Level FlightAware Approximate
01:52AM 8.2456 -73.6496 342° North  Level FlightAware Approximate
01:53AM 8.3609 -73.6864 342° North  Level FlightAware Approximate
01:54AM 8.4762 -73.7232 342° North  Level FlightAware Approximate
01:55AM 8.5915 -73.7601 342° North  Level FlightAware Approximate
01:56AM 8.7067 -73.7969 342° North  Level FlightAware Approximate
01:57AM 8.8220 -73.8338 342° North  Level FlightAware Approximate
01:58AM 8.9373 -73.8707 342° North  Level FlightAware Approximate
01:59AM 9.0526 -73.9076 342° North  Level FlightAware Approximate
02:00AM 9.1678 -73.9446 342° North  Level FlightAware Approximate
02:01AM 9.2831 -73.9815 342° North  Level FlightAware Approximate
02:02AM 9.3983 -74.0185 342° North  Level FlightAware Approximate
02:03AM 9.5136 -74.0556 342° North  Level FlightAware Approximate
02:04AM 9.6288 -74.0926 342° North  Level FlightAware Approximate
02:05AM 9.7441 -74.1297 342° North  Level FlightAware Approximate
02:06AM 9.8593 -74.1668 342° North  Level FlightAware Approximate
02:07AM 9.9746 -74.2039 342° North  Level FlightAware Approximate
02:08AM 10.0898 -74.2411 342° North  Level FlightAware Approximate
02:09AM 10.2050 -74.2782 342° North  Level FlightAware Approximate
02:10AM 10.3203 -74.3154 342° North  Level FlightAware Approximate
02:11AM 10.4355 -74.3527 342° North  Level FlightAware Approximate
02:12AM 10.5507 -74.3899 342° North  Level FlightAware Approximate
02:13AM 10.6659 -74.4272 342° North  Level FlightAware Approximate
02:14AM 10.7811 -74.4645 342° North  Level FlightAware Approximate
02:15AM 10.8963 -74.5018 342° North  Level FlightAware Approximate
02:16AM 11.0115 -74.5392 342° North  Level FlightAware Approximate
02:17AM 11.1267 -74.5766 342° North  Level FlightAware Approximate
02:18AM 11.2419 -74.6140 342° North  Level FlightAware Approximate
02:19AM 11.3570 -74.6518 342° North  Level FlightAware Approximate
02:20AM 11.4721 -74.6896 342° North  Level FlightAware Approximate
02:21AM 11.5872 -74.7275 342° North  Level FlightAware Approximate
02:22AM 11.7023 -74.7654 342° North  Level FlightAware Approximate
02:23AM 11.8173 -74.8033 342° North  Level FlightAware Approximate
02:24AM 11.9324 -74.8412 342° North  Level FlightAware Approximate
02:25AM 12.0474 -74.8792 342° North  Level FlightAware Approximate
02:26AM 12.1625 -74.9172 342° North  Level FlightAware Approximate
02:27AM 12.2775 -74.9553 342° North  Level FlightAware Approximate
02:28AM 12.3926 -74.9934 342° North  Level FlightAware Approximate
02:29AM 12.5076 -75.0315 342° North  Level FlightAware Approximate
02:30AM 12.6226 -75.0696 342° North  Level FlightAware Approximate
02:31AM 12.7376 -75.1078 342° North  Level FlightAware Approximate
02:32AM 12.8527 -75.1460 342° North  Level FlightAware Approximate
02:33AM 12.9677 -75.1843 342° North  Level FlightAware Approximate
02:34AM 13.0827 -75.2225 342° North  Level FlightAware Approximate
02:35AM 13.1977 -75.2609 342° North  Level FlightAware Approximate
02:36AM 13.3127 -75.2992 342° North  Level FlightAware Approximate
02:37AM 13.4277 -75.3376 342° North  Level FlightAware Approximate
02:38AM 13.5426 -75.3761 342° North  Level FlightAware Approximate
02:39AM 13.6576 -75.4145 342° North  Level FlightAware Approximate
02:40AM 13.7726 -75.4530 342° North  Level FlightAware Approximate
02:41AM 13.8875 -75.4916 342° North  Level FlightAware Approximate
02:42AM 14.0025 -75.5301 342° North  Level FlightAware Approximate
02:43AM 14.1174 -75.5688 342° North  Level FlightAware Approximate
02:44AM 14.2324 -75.6074 342° North  Level FlightAware Approximate
02:45AM 14.3473 -75.6461 342° North  Level FlightAware Approximate
02:46AM 14.4623 -75.6849 342° North  Level FlightAware Approximate
02:47AM 14.5772 -75.7236 342° North  Level FlightAware Approximate
02:48AM 14.6921 -75.7625 342° North  Level FlightAware Approximate
02:49AM 14.8070 -75.8013 342° North  Level FlightAware Approximate
02:50AM 14.9219 -75.8402 342° North  Level FlightAware Approximate
02:51AM 15.0369 -75.8789 342° North  Level FlightAware Approximate
02:52AM 15.1520 -75.9173 342° North  Level FlightAware Approximate
02:53AM 15.2671 -75.9556 342° North  Level FlightAware Approximate
02:54AM 15.3822 -75.9940 342° North  Level FlightAware Approximate
02:55AM 15.4972 -76.0325 342° North  Level FlightAware Approximate
02:56AM 15.6123 -76.0710 342° North  Level FlightAware Approximate
02:57AM 15.7274 -76.1095 342° North  Level FlightAware Approximate
02:58AM 15.8424 -76.1481 342° North  Level FlightAware Approximate
02:59AM 15.9575 -76.1867 342° North  Level FlightAware Approximate
03:00AM 16.0725 -76.2254 342° North  Level FlightAware Approximate
03:01AM 16.1876 -76.2641 342° North  Level FlightAware Approximate
03:02AM 16.3026 -76.3028 342° North  Level FlightAware Approximate
03:03AM 16.4176 -76.3417 342° North  Level FlightAware Approximate
03:04AM 16.5327 -76.3805 342° North  Level FlightAware Approximate
03:05AM 16.6477 -76.4194 342° North  Level FlightAware Approximate
03:06AM 16.7627 -76.4583 342° North  Level FlightAware Approximate
03:07AM 16.8777 -76.4973 342° North  Level FlightAware Approximate
03:08AM 16.9927 -76.5364 342° North  Level FlightAware Approximate
03:09AM 17.1076 -76.5754 342° North  Level FlightAware Approximate
03:10AM 17.2226 -76.6146 342° North  Level FlightAware Approximate
03:11AM 17.3376 -76.6537 342° North  Level FlightAware Approximate
03:12AM 17.4525 -76.6930 342° North  Level FlightAware Approximate
03:13AM 17.5675 -76.7323 342° North  Level FlightAware Approximate
03:14AM 17.6824 -76.7716 342° North  Level FlightAware Approximate
03:15AM 17.7974 -76.8110 342° North  Level FlightAware Approximate
03:16AM 17.9123 -76.8504 342° North  Level FlightAware Approximate
03:17AM 18.0272 -76.8899 342° North  Level FlightAware Approximate
03:18AM 18.1421 -76.9294 342° North  Level FlightAware Approximate
03:19AM 18.2570 -76.9690 342° North  Level FlightAware Approximate
03:20AM 18.3719 -77.0086 342° North  Level FlightAware Approximate
03:21AM 18.4868 -77.0483 342° North  Level FlightAware Approximate
03:22AM 18.6017 -77.0881 342° North  Level FlightAware Approximate
03:23AM 18.7166 -77.1279 342° North  Level FlightAware Approximate
03:24AM 18.8314 -77.1677 342° North  Level FlightAware Approximate
03:25AM 18.9463 -77.2076 342° North  Level FlightAware Approximate
03:26AM 19.0611 -77.2476 342° North  Level FlightAware Approximate
03:27AM 19.1760 -77.2876 342° North  Level FlightAware Approximate
03:28AM 19.2908 -77.3277 342° North  Level FlightAware Approximate
03:29AM 19.4056 -77.3678 342° North  Level FlightAware Approximate
03:30AM 19.5204 -77.4083 342° North  Level FlightAware Approximate
03:31AM 19.6350 -77.4490 342° North  Level FlightAware Approximate
03:32AM 19.7493 -77.4897 341° North  Level FlightAware Approximate
03:33AM 19.8635 -77.5304 341° North  Level FlightAware Approximate
03:34AM 19.9778 -77.5712 341° North  Level FlightAware Approximate
03:35AM 20.0920 -77.6120 341° North  Level FlightAware Approximate
03:36AM 20.2062 -77.6529 341° North  Level FlightAware Approximate
03:37AM 20.3205 -77.6938 341° North  Level FlightAware Approximate
03:38AM 20.4347 -77.7348 341° North  Level FlightAware Approximate
03:39AM 20.5489 -77.7759 341° North  Level FlightAware Approximate
03:40AM 20.6631 -77.8170 341° North  Level FlightAware Approximate
03:41AM 20.7773 -77.8582 341° North  Level FlightAware Approximate
03:42AM 20.8914 -77.8995 341° North  Level FlightAware Approximate
03:43AM 21.0056 -77.9408 341° North  Level FlightAware Approximate
03:44AM 21.1197 -77.9822 341° North  Level FlightAware Approximate
03:45AM 21.2339 -78.0236 341° North  Level FlightAware Approximate
03:46AM 21.3480 -78.0651 341° North  Level FlightAware Approximate
03:46AM 23.0178 -78.0914 341° North 417 480 38,000  Level Miami Center
03:47AM 21.4621 -78.1067 341° North  Level FlightAware Approximate
03:47AM 23.1158 -78.1239 343° North 376 433 38,000  Level Miami Center
03:48AM 21.5762 -78.1483 341° North  Level FlightAware Approximate
03:48AM 23.1969 -78.1542 341° North 370 426 38,000  Level Miami Center
03:49AM 21.6903 -78.1900 341° North  Level FlightAware Approximate
03:49AM 23.3053 -78.1981 340° North 370 426 38,000  Level Miami Center
03:50AM 21.8044 -78.2318 341° North  Level FlightAware Approximate
03:50AM 23.4011 -78.2286 344° North 363 418 38,000  Level Miami Center
03:51AM 21.9185 -78.2737 341° North  Level FlightAware Approximate
03:51AM 23.5072 -78.2797 336° Northwest 377 434 38,000  Level Miami Center
03:52AM 22.0326 -78.3156 341° North  Level FlightAware Approximate
03:52AM 23.6050 -78.3125 343° North 377 434 38,000  Level Miami Center
03:53AM 23.7050 -78.3500 341° North 377 434 38,000  Level Miami Center
03:54AM 23.8028 -78.3872 341° North 372 428 38,000  Level Miami Center
03:55AM 23.9028 -78.4250 341° North 367 422 38,000  Level Miami Center
03:56AM 23.9964 -78.4603 341° North 367 422 38,000  Level Miami Center
03:57AM 24.0942 -78.5092 335° Northwest 367 422 38,000  Level Miami Center
03:58AM 24.1878 -78.5514 338° Northwest 367 422 38,000  Level Miami Center
03:59AM 24.2894 -78.6006 336° Northwest 379 436 38,000  Level Miami Center
04:00AM 24.3831 -78.6453 336° Northwest 379 436 38,000  Level Miami Center
04:01AM 24.4786 -78.6900 337° Northwest 377 434 38,000  Level Miami Center
04:02AM 24.5806 -78.7394 336° Northwest 382 440 38,000  Level Miami Center
04:03AM 24.6800 -78.7867 337° Northwest 382 440 38,000  Level Miami Center
04:04AM 24.7778 -78.8342 336° Northwest 377 434 38,000  Level Miami Center
04:05AM 24.8731 -78.8836 335° Northwest 377 434 38,000  Level Miami Center
04:06AM 24.9728 -78.9289 338° Northwest 384 442 38,000  Level Miami Center
04:07AM 25.0828 -78.9789 338° Northwest 384 442 38,000  Level Miami Center
04:08AM 25.1803 -79.0267 336° Northwest 384 442 38,000  Level Miami Center
04:09AM 25.2758 -79.0742 336° Northwest 379 436 38,000  Level Miami Center
04:10AM 25.3753 -79.1219 337° Northwest 379 436 38,000  Level Miami Center
04:11AM 25.4728 -79.1697 336° Northwest 379 436 38,000  Level Miami Center
04:12AM 25.5703 -79.2178 336° Northwest 379 436 38,000  Level Miami Center
04:13AM 25.6697 -79.2636 337° Northwest 384 442 38,000  Level Miami Center
04:14AM 25.7650 -79.3139 335° Northwest 378 435 38,000  Level Miami Center
04:15AM 25.8564 -79.3572 337° Northwest 384 442 38,000  Level Miami Center
04:16AM 25.9642 -79.4103 336° Northwest 384 442 38,000  Level Miami Center
04:17AM 26.0656 -79.4589 337° Northwest 384 442 38,000  Level Miami Center
04:18AM 26.1650 -79.5072 336° Northwest 384 442 38,000  Level Miami Center
04:19AM 26.2642 -79.5603 334° Northwest 389 448 38,000  Level Miami Center
04:20AM 26.3617 -79.6067 337° Northwest 383 441 38,000  Level Miami Center
04:21AM 26.4506 -79.6528 335° Northwest 383 441 38,000  Level Miami Center
04:22AM 26.5603 -79.7064 336° Northwest 383 441 38,000  Level Miami Center
04:23AM 26.6511 -79.7506 337° Northwest 389 448 38,000  Level Miami Center
04:24AM 26.7586 -79.8067 335° Northwest 389 448 38,000  Level Miami Center
04:25AM 26.8581 -79.8558 336° Northwest 389 448 38,000  Level Miami Center
04:26AM 26.9550 -79.9072 335° Northwest 389 448 38,000  Level Miami Center
04:27AM 27.0461 -79.9517 337° Northwest 389 448 38,000  Level Miami Center
04:28AM 27.1533 -80.0081 335° Northwest 389 448 38,000  Level Miami Center
04:29AM 27.2544 -80.0600 335° Northwest 389 448 38,000  Level Miami Center
04:30AM 27.3536 -80.1072 337° Northwest 394 453 38,000  Level Miami Center
04:31AM 27.4550 -80.1592 336° Northwest 394 453 38,000  Level Miami Center
04:32AM 27.5558 -80.2111 335° Northwest 394 453 38,000  Level Miami Center
04:33AM 27.6592 -80.2633 336° Northwest 394 453 38,000  Level Miami Center
04:34AM 27.7603 -80.3158 335° Northwest 394 453 38,000  Level Miami Center
04:35AM 27.8614 -80.3633 337° Northwest 394 453 38,000  Level Miami Center
04:36AM 27.9519 -80.4086 336° Northwest 394 453 38,000  Level Miami Center
04:37AM 28.0653 -80.4686 335° Northwest 394 453 38,000  Level Miami Center
04:38AM 28.1683 -80.5214 336° Northwest 394 453 38,000  Level Miami Center
04:40AM 28.3678 -80.6256 335° Northwest 391 450 38,000  Level Jacksonville Center
04:41AM 28.4647 -80.6778 335° Northwest 408 470 38,000  Level Jacksonville Center
04:42AM 28.5658 -80.7297 336° Northwest 408 470 38,000  Level Jacksonville Center
04:43AM 28.6711 -80.7819 336° Northwest 402 463 38,000  Level Jacksonville Center
04:44AM 28.7719 -80.8367 335° Northwest 402 463 38,000  Level Jacksonville Center
04:45AM 28.8731 -80.8892 336° Northwest 402 463 38,000  Level Jacksonville Center
04:46AM 28.9761 -80.9417 336° Northwest 402 463 38,000  Level Jacksonville Center
04:47AM 29.0814 -80.9967 335° Northwest 402 463 38,000  Level Jacksonville Center
04:48AM 29.1844 -81.0469 337° Northwest 402 463 38,000  Level Jacksonville Center
04:49AM 29.2872 -81.0997 336° Northwest 402 463 38,000  Level Jacksonville Center
04:50AM 29.3925 -81.1478 338° Northwest 402 463 38,000  Level Jacksonville Center
04:51AM 29.4914 -81.2058 333° Northwest 402 463 38,000  Level Jacksonville Center
04:52AM 29.5942 -81.2564 337° Northwest 402 463 38,000  Level Jacksonville Center
04:53AM 29.6994 -81.3144 334° Northwest 402 463 38,000  Level Jacksonville Center
04:54AM 29.8044 -81.3656 337° Northwest 402 463 38,000  Level Jacksonville Center
04:55AM 29.9094 -81.4214 335° Northwest 402 463 38,000  Level Jacksonville Center
04:56AM 30.0144 -81.4750 336° Northwest 408 470 38,000  Level Jacksonville Center
04:57AM 30.1194 -81.5286 336° Northwest 408 470 38,000  Level Jacksonville Center
04:58AM 30.2264 -81.5822 337° Northwest 408 470 38,000  Level Jacksonville Center
04:59AM 30.3333 -81.6339 337° Northwest 408 470 38,000  Level Jacksonville Center
05:00AM 30.4447 -81.6903 336° Northwest 413 475 38,000  Level Jacksonville Center
05:01AM 30.5517 -81.7492 335° Northwest 414 476 38,000  Level Jacksonville Center
05:02AM 30.6564 -81.8058 335° Northwest 414 476 38,000 -180 Level Jacksonville Center
05:03AM 30.7636 -81.8650 335° Northwest 414 476 37,700 -600 Descending Jacksonville Center
05:04AM 30.8683 -81.9219 335° Northwest 421 484 36,800 -960 Descending Jacksonville Center
05:05AM 30.9772 -81.9792 336° Northwest 421 484 35,800 -900 Descending Jacksonville Center
05:06AM 31.0842 -82.0339 336° Northwest 421 484 35,000 -540 Descending Jacksonville Center
05:09AM 31.3464 -82.1739 335° Northwest 421 484 34,000 -300 Descending Atlanta Center
05:10AM 31.4558 -82.2303 336° Northwest 421 484 34,000  Level Atlanta Center
05:11AM 31.5650 -82.2889 335° Northwest 421 484 34,000  Level Atlanta Center
05:12AM 31.6722 -82.3456 336° Northwest 421 484 34,000  Level Atlanta Center
05:13AM 31.7839 -82.4069 335° Northwest 421 484 34,000  Level Atlanta Center
05:14AM 31.8931 -82.4661 335° Northwest 426 490 34,000  Level Atlanta Center
05:15AM 31.9983 -82.5278 334° Northwest 421 484 34,000  Level Atlanta Center
05:16AM 32.0892 -82.6169 320° Northwest 421 484 34,000  Level Atlanta Center
05:17AM 32.1756 -82.7064 319° Northwest 421 484 34,000  Level Atlanta Center
05:18AM 32.2622 -82.7983 318° Northwest 421 484 34,000  Level Atlanta Center
05:19AM 32.3506 -82.8881 319° Northwest 416 479 34,000  Level Atlanta Center
05:20AM 32.4369 -82.9781 319° Northwest 421 484 34,000 -120 Level Atlanta Center
05:21AM 32.5233 -83.0706 318° Northwest 421 484 33,800 -780 Descending Atlanta Center
05:22AM 32.6075 -83.1611 318° Northwest 421 484 32,500 -2,460 Descending Atlanta Center
05:23AM 32.6958 -83.2539 319° Northwest 421 484 28,900 -3,360 Descending Atlanta Center
05:24AM 32.7842 -83.3469 318° Northwest 421 484 25,800 -3,180 Descending Atlanta Center
05:25AM 32.8681 -83.4353 319° Northwest 421 484 22,600 -3,240 Descending Atlanta Center
05:26AM 32.9542 -83.5264 318° Northwest 421 484 19,400 -3,000 Descending Atlanta Center
05:27AM 33.0358 -83.6150 318° Northwest 416 479 16,700 -2,700 Descending Atlanta Center
05:28AM 33.1333 -83.7167 319° Northwest 376 433 13,700 -2,160 Descending Atlanta TRACON
05:29AM 33.2000 -83.8000 314° West 352 405 12,100 -960 Descending Atlanta TRACON
05:30AM 33.2667 -83.8833 314° West 294 338 11,800 -780 Descending Atlanta TRACON
05:31AM 33.2975 -83.9319 307° West 293 337 10,700 -1,500 Descending Atlanta Center
05:32AM 33.3414 -83.9992 308° West 266 306 9,000 -1,800 Descending Atlanta Center
05:33AM 33.3936 -84.0536 319° Northwest 254 292 7,100 -1,800 Descending Atlanta Center
05:34AM 33.4622 -84.1061 327° Northwest 254 292 5,500 -1,500 Descending Atlanta Center
05:35AM 33.5228 -84.1508 328° Northwest 260 299 4,200 -960 Descending Atlanta Center
05:36AM 33.5750 -84.1933 326° Northwest 248 285 3,600 -720 Descending Atlanta Center
05:37AM 33.6144 -84.2408 315° West 220 253 2,800 -840 Descending Atlanta Center